METAR Data
IDs: Format: Raw Decoded Include TAF

Data at: 2104 UTC 31 Jan 2023

METAR for:EDVE (Braunschweig Arpt, NI, DE)
Text:EDVE 312050Z AUTO 28019KT 9999 BKN028/// BKN044/// 06/02 Q1014
Temperature: 6.0°C ( 43°F)
Dewpoint: 2.0°C ( 36°F) [RH = 75%]
Pressure (altimeter):29.94 inches Hg (1014.0 mb)
Winds:from the W (280 degrees) at 22 MPH (19 knots; 9.8 m/s)
Visibility:6 or more sm (10+ km)
Ceiling:2800 feet AGL
Clouds: broken clouds at 2800 feet AGL, broken clouds at 4400 feet AGL